createdAt,value
2022-12-28T15:36:16.715Z,8.73
2022-12-28T15:38:44.563Z,8.74
2022-12-28T15:41:29.789Z,8.76
2022-12-28T15:44:54.243Z,8.78
2022-12-28T15:47:20.962Z,8.77
2022-12-28T15:49:47.378Z,8.78
2022-12-28T15:52:13.847Z,8.81
2022-12-28T15:54:45.287Z,8.83
2022-12-28T15:57:15.489Z,8.83
2022-12-28T15:59:41.928Z,8.81
2022-12-28T16:02:12.945Z,8.78
2022-12-28T16:04:39.606Z,8.76
2022-12-28T16:07:06.141Z,8.73
2022-12-28T16:09:32.627Z,8.68
2022-12-28T16:11:59.137Z,8.66
2022-12-28T16:14:25.643Z,8.64
2022-12-28T16:16:52.100Z,8.60
2022-12-28T16:19:18.679Z,8.59
2022-12-28T16:21:45.231Z,8.57
2022-12-28T16:24:12.198Z,8.51
2022-12-28T16:26:38.608Z,8.49
2022-12-28T16:29:05.083Z,8.48
2022-12-28T16:31:36.582Z,8.47
2022-12-28T16:34:10.296Z,8.44
2022-12-28T16:36:37.027Z,8.40
2022-12-28T16:39:06.001Z,8.37
2022-12-28T16:41:36.732Z,8.35
2022-12-28T16:44:12.232Z,8.35
2022-12-28T16:46:38.843Z,8.34
2022-12-28T16:49:05.373Z,8.33
2022-12-28T16:51:31.958Z,8.31
2022-12-28T16:53:58.454Z,8.28
2022-12-28T16:56:24.990Z,8.27
2022-12-28T16:58:55.688Z,8.24
2022-12-28T17:01:22.212Z,8.22
2022-12-28T17:03:48.735Z,8.20
2022-12-28T17:06:16.475Z,8.18
2022-12-28T17:08:42.893Z,8.18
2022-12-28T17:11:11.113Z,8.18
2022-12-28T17:13:38.582Z,8.16
2022-12-28T17:16:06.359Z,8.14
2022-12-28T17:18:32.913Z,8.11
2022-12-28T17:21:03.353Z,8.11
2022-12-28T17:23:33.108Z,8.12
2022-12-28T17:25:59.542Z,8.11
2022-12-28T17:28:25.956Z,8.10
2022-12-28T17:31:14.144Z,8.11
2022-12-28T17:33:45.477Z,8.10
2022-12-28T17:36:12.486Z,8.10
2022-12-28T17:38:39.249Z,8.10
2022-12-28T17:41:15.257Z,8.14
2022-12-28T17:43:49.291Z,8.15
2022-12-28T17:46:16.323Z,8.16
2022-12-28T17:48:43.054Z,8.14
2022-12-28T17:51:11.583Z,8.15
2022-12-28T17:53:39.592Z,8.15
2022-12-28T17:56:09.080Z,8.14
2022-12-28T17:58:35.651Z,8.15
2022-12-28T18:01:02.178Z,8.14
2022-12-28T18:03:33.689Z,8.13
2022-12-28T18:06:01.047Z,8.13
2022-12-28T18:08:27.842Z,8.11
2022-12-28T18:10:54.334Z,8.11
2022-12-28T18:13:23.246Z,8.09
2022-12-28T18:15:50.068Z,8.07
2022-12-28T18:18:17.826Z,8.08
2022-12-28T18:20:44.776Z,8.06
2022-12-28T18:23:11.638Z,8.07
2022-12-28T18:25:38.412Z,8.07
2022-12-28T18:28:05.221Z,8.05
2022-12-28T18:30:31.808Z,8.06
2022-12-28T18:32:58.310Z,8.07
2022-12-28T18:35:26.693Z,8.06
2022-12-28T18:37:53.397Z,8.04
2022-12-28T18:40:19.934Z,8.05
2022-12-28T18:42:46.402Z,8.07
2022-12-28T18:45:12.813Z,8.06
2022-12-28T18:47:39.366Z,8.07
2022-12-28T18:50:06.293Z,8.07
2022-12-28T18:52:35.918Z,8.09
2022-12-28T18:55:03.656Z,8.10
2022-12-28T18:57:30.330Z,8.10
2022-12-28T18:59:56.820Z,8.13
2022-12-28T19:02:23.339Z,8.14
2022-12-28T19:04:52.651Z,8.14
2022-12-28T19:07:19.469Z,8.15
2022-12-28T19:10:12.039Z,8.15
2022-12-28T19:12:40.588Z,8.18
2022-12-28T19:15:07.707Z,8.18
2022-12-28T19:17:34.134Z,8.21
2022-12-28T19:20:00.631Z,8.23
2022-12-28T19:22:27.169Z,8.24
2022-12-28T19:24:53.681Z,8.28
2022-12-28T19:27:20.173Z,8.29
2022-12-28T19:29:46.833Z,8.31
2022-12-28T19:32:13.215Z,8.34
2022-12-28T19:34:39.603Z,8.37
2022-12-28T19:37:06.037Z,8.40
2022-12-28T19:39:32.489Z,8.41
2022-12-28T19:41:59.012Z,8.43
2022-12-28T19:44:25.477Z,8.46
2022-12-28T19:46:53.890Z,8.49
2022-12-28T19:49:20.547Z,8.53
2022-12-28T19:51:47.117Z,8.55
2022-12-28T19:54:13.560Z,8.61
2022-12-28T19:56:39.981Z,8.62
2022-12-28T19:59:07.292Z,8.64
2022-12-28T20:01:35.712Z,8.70
2022-12-28T20:04:07.216Z,8.74
2022-12-28T20:06:39.384Z,8.80
2022-12-28T20:09:05.886Z,8.81
2022-12-28T20:11:32.342Z,8.82
2022-12-28T20:14:01.629Z,8.87
2022-12-28T20:16:30.690Z,8.93
2022-12-28T20:18:57.375Z,9.00
2022-12-28T20:21:25.507Z,8.97
2022-12-28T20:23:52.946Z,8.98
2022-12-28T20:26:21.492Z,8.99
2022-12-28T20:28:51.145Z,9.03
2022-12-28T20:31:17.987Z,9.04
2022-12-28T20:33:45.388Z,9.08
2022-12-28T20:36:14.805Z,9.11
2022-12-28T20:38:41.737Z,9.13
2022-12-28T20:41:34.909Z,9.14
2022-12-28T20:44:04.282Z,9.18
2022-12-28T20:46:30.786Z,9.22
2022-12-28T20:48:58.413Z,9.27
2022-12-28T20:51:25.737Z,9.28
2022-12-28T20:53:52.143Z,9.35
2022-12-28T20:56:18.660Z,9.38
2022-12-28T20:58:45.283Z,9.39
2022-12-28T21:01:14.737Z,9.42
2022-12-28T21:03:41.895Z,9.47
2022-12-28T21:06:08.694Z,9.51
2022-12-28T21:08:35.682Z,9.53
2022-12-28T21:11:02.792Z,9.56
2022-12-28T21:13:29.867Z,9.60
2022-12-28T21:15:56.362Z,9.65
2022-12-28T21:18:23.103Z,9.68
2022-12-28T21:20:53.567Z,9.73
2022-12-28T21:23:19.883Z,9.76
2022-12-28T21:25:46.366Z,9.77
2022-12-28T21:28:12.796Z,9.80
2022-12-28T21:30:39.241Z,9.80
2022-12-28T21:33:05.915Z,9.83
2022-12-28T21:35:34.769Z,9.84
2022-12-28T21:38:01.814Z,9.87
2022-12-28T21:40:28.360Z,9.86
2022-12-28T21:42:54.754Z,9.87
2022-12-28T21:45:21.276Z,9.87
2022-12-28T21:47:47.766Z,9.89
2022-12-28T21:50:14.224Z,9.91
2022-12-28T21:52:40.704Z,9.93
2022-12-28T21:55:26.038Z,9.94
2022-12-28T21:57:53.903Z,9.95
2022-12-28T22:00:39.101Z,9.97
2022-12-28T22:03:24.582Z,9.96
2022-12-28T22:06:03.129Z,9.87
2022-12-28T22:08:51.835Z,9.83
2022-12-28T22:11:37.544Z,9.79
2022-12-28T22:14:05.350Z,9.79
2022-12-28T22:16:33.722Z,9.79
2022-12-28T22:19:02.697Z,9.77
2022-12-28T22:21:30.047Z,9.75
2022-12-28T22:23:56.511Z,9.76
2022-12-28T22:26:22.971Z,9.77
2022-12-28T22:28:49.448Z,9.79
2022-12-28T22:31:15.885Z,9.83
2022-12-28T22:33:42.331Z,9.85
2022-12-28T22:36:17.354Z,9.88
2022-12-28T22:38:44.475Z,9.89
2022-12-28T22:41:10.908Z,9.92
2022-12-28T22:43:37.757Z,9.94
2022-12-28T22:46:09.995Z,9.96
2022-12-28T22:48:37.131Z,9.97
2022-12-28T22:51:11.572Z,10.00
2022-12-28T22:53:39.023Z,10.03
2022-12-28T22:56:09.365Z,10.08
2022-12-28T22:58:35.857Z,10.12
2022-12-28T23:01:03.912Z,10.15
2022-12-28T23:03:30.929Z,10.15
2022-12-28T23:05:57.456Z,10.16
2022-12-28T23:08:23.903Z,10.20
2022-12-28T23:10:58.644Z,10.26
2022-12-28T23:13:26.715Z,10.26
2022-12-28T23:16:04.734Z,10.24
2022-12-28T23:18:53.203Z,10.24
2022-12-28T23:21:41.897Z,10.26
2022-12-28T23:24:31.308Z,10.27
2022-12-28T23:27:18.220Z,10.25
2022-12-28T23:29:45.755Z,10.26
2022-12-28T23:32:12.573Z,10.28
2022-12-28T23:34:39.060Z,10.31
2022-12-28T23:37:05.679Z,10.33
2022-12-28T23:39:32.132Z,10.35
2022-12-28T23:41:58.628Z,10.35
2022-12-28T23:44:26.412Z,10.39
2022-12-28T23:46:58.596Z,10.40
2022-12-28T23:49:26.564Z,10.42
2022-12-28T23:51:53.224Z,10.41
2022-12-28T23:54:19.774Z,10.39
2022-12-28T23:56:46.882Z,10.42
2022-12-28T23:59:13.315Z,10.47
